Time;durP1;ratioP1;P1;durP2;ratioP2;P2;SDS_P1;SDS_P2;PMS_P1;PMS_P2;Temp;Humidity;BMP_temperature;BMP_pressure;BME280_temperature;BME280_humidity;BME280_pressure;Samples;Min_cycle;Max_cycle;Signal;HPM_P1;HPM_P2
2021/04/21 06:52:52;;;;;;;7.20;6.50;;;14.60;46.10;;;;;;4980312;28;20091;-58
2021/04/21 06:55:18;;;;;;;8.07;6.40;;;14.40;45.60;;;;;;5013960;28;20095;-57
2021/04/21 06:57:44;;;;;;;8.38;6.82;;;14.50;45.90;;;;;;5032000;28;20052;-58
2021/04/21 07:00:18;;;;;;;8.90;6.10;;;14.60;46.50;;;;;;5038026;28;20127;-56
2021/04/21 07:02:46;;;;;;;8.27;6.78;;;14.60;45.70;;;;;;5042012;28;20099;-59
2021/04/21 07:05:34;;;;;;;8.70;6.10;;;14.60;46.00;;;;;;5031524;28;20048;-58
2021/04/21 07:08:16;;;;;;;7.78;6.22;;;14.60;45.90;;;;;;5012181;28;20033;-57
2021/04/21 07:10:43;;;;;;;9.13;6.35;;;14.80;46.30;;;;;;5036628;28;20052;-57
2021/04/21 07:13:23;;;;;;;6.25;5.65;;;14.80;45.60;;;;;;5031082;28;20491;-58
2021/04/21 07:15:55;;;;;;;9.27;6.05;;;15.00;45.70;;;;;;5033976;28;20047;-54
2021/04/21 07:18:26;;;;;;;7.97;5.72;;;14.90;45.50;;;;;;5029140;28;20041;-55
2021/04/21 07:20:55;;;;;;;7.00;5.53;;;14.90;45.60;;;;;;5025291;28;20050;-57
2021/04/21 07:23:23;;;;;;;5.60;5.03;;;15.00;45.50;;;;;;5026205;28;20124;-58
2021/04/21 07:25:50;;;;;;;6.25;5.50;;;15.10;45.70;;;;;;5024355;28;20079;-57
2021/04/21 07:28:17;;;;;;;7.20;5.05;;;15.00;45.40;;;;;;5027005;28;20037;-57
2021/04/21 07:30:43;;;;;;;6.13;4.80;;;15.10;45.90;;;;;;5031357;28;20043;-56
2021/04/21 07:33:10;;;;;;;7.38;4.85;;;15.00;45.50;;;;;;5037113;28;20048;-58
2021/04/21 07:35:36;;;;;;;7.65;5.45;;;15.10;45.70;;;;;;5023580;28;20128;-58
2021/04/21 07:38:02;;;;;;;5.72;4.75;;;15.10;45.50;;;;;;5036485;28;20125;-58
2021/04/21 07:40:34;;;;;;;7.05;5.40;;;15.10;45.60;;;;;;5029871;28;20466;-58
2021/04/21 07:43:17;;;;;;;7.07;4.70;;;15.20;45.80;;;;;;5028696;28;20065;-58
2021/04/21 07:45:51;;;;;;;5.78;4.75;;;15.20;45.70;;;;;;5024322;28;20030;-58
2021/04/21 07:48:43;;;;;;;6.88;4.97;;;15.20;45.00;;;;;;5032729;28;20134;-57
2021/04/21 07:51:15;;;;;;;7.90;4.75;;;15.10;45.00;;;;;;4995815;28;20037;-55
2021/04/21 07:54:07;;;;;;;7.78;5.32;;;15.30;45.60;;;;;;5035251;28;20356;-56
2021/04/21 07:56:54;;;;;;;7.35;5.20;;;15.40;45.50;;;;;;5002428;28;20032;-56
2021/04/21 07:59:28;;;;;;;5.82;5.28;;;15.30;45.00;;;;;;5063758;28;20048;-56
2021/04/21 08:02:01;;;;;;;5.88;5.30;;;15.40;45.00;;;;;;5030566;28;20068;-57
2021/04/21 08:04:28;;;;;;;7.35;6.45;;;15.50;44.80;;;;;;5057509;28;20033;-57
2021/04/21 08:06:59;;;;;;;6.00;5.20;;;15.60;44.70;;;;;;5041399;28;20047;-56
2021/04/21 08:09:31;;;;;;;6.50;5.78;;;15.70;44.80;;;;;;5055357;28;20120;-54
2021/04/21 08:12:15;;;;;;;9.70;5.55;;;15.80;44.50;;;;;;5047390;28;20044;-56
2021/04/21 08:14:47;;;;;;;7.43;6.13;;;15.80;44.30;;;;;;5044516;28;20115;-56
2021/04/21 08:17:14;;;;;;;7.03;6.18;;;15.80;43.80;;;;;;5056514;28;20075;-56
2021/04/21 08:19:45;;;;;;;9.48;5.88;;;15.80;44.50;;;;;;5046387;28;20059;-55
2021/04/21 08:22:11;;;;;;;6.60;6.00;;;15.90;44.00;;;;;;5051848;28;20035;-57
2021/04/21 08:24:45;;;;;;;7.85;6.13;;;15.90;44.10;;;;;;5053199;28;20128;-53
2021/04/21 08:27:14;;;;;;;6.25;5.65;;;15.90;43.90;;;;;;5048931;28;20041;-56
2021/04/21 08:29:41;;;;;;;7.85;6.20;;;16.00;43.70;;;;;;5056006;28;20532;-57
2021/04/21 08:32:07;;;;;;;10.73;5.57;;;16.10;43.90;;;;;;5047983;28;20041;-56
2021/04/21 08:34:33;;;;;;;10.55;5.75;;;16.20;43.40;;;;;;5036582;28;20382;-57
2021/04/21 08:36:59;;;;;;;7.00;5.10;;;16.40;43.60;;;;;;5041328;28;20037;-58
2021/04/21 08:39:26;;;;;;;5.22;4.72;;;16.40;43.30;;;;;;5062526;28;20045;-57
2021/04/21 08:42:00;;;;;;;8.63;5.68;;;16.40;43.00;;;;;;5049054;28;20045;-56
2021/04/21 08:44:30;;;;;;;6.65;5.00;;;16.50;42.80;;;;;;5051641;28;20111;-56
2021/04/21 08:47:00;;;;;;;6.20;5.05;;;16.60;42.80;;;;;;5060337;28;20379;-57
2021/04/21 08:49:28;;;;;;;8.63;5.20;;;16.50;42.60;;;;;;5034343;28;20044;-58
2021/04/21 08:51:57;;;;;;;9.43;5.30;;;16.50;43.00;;;;;;5058031;28;20450;-57
2021/04/21 08:54:23;;;;;;;10.75;5.05;;;16.50;42.50;;;;;;5027928;28;20091;-57
2021/04/21 08:57:39;;;;;;;10.68;4.88;;;16.70;42.40;;;;;;5050781;28;20048;-58
2021/04/21 09:00:05;;;;;;;8.50;4.57;;;16.80;41.70;;;;;;5007438;28;20407;-57
2021/04/21 09:02:33;;;;;;;6.45;5.13;;;16.60;41.50;;;;;;5069249;28;20474;-56
2021/04/21 09:04:58;;;;;;;5.60;4.70;;;16.80;41.50;;;;;;5050667;28;20033;-57
2021/04/21 09:07:24;;;;;;;5.47;4.28;;;16.70;40.60;;;;;;5042499;28;20056;-58
2021/04/21 09:09:50;;;;;;;7.03;5.07;;;16.80;40.80;;;;;;5049308;28;20060;-58
2021/04/21 09:12:16;;;;;;;6.90;5.50;;;16.80;40.90;;;;;;5037672;28;20093;-58
2021/04/21 09:14:42;;;;;;;6.47;4.72;;;17.00;41.00;;;;;;5052727;28;20029;-57
2021/04/21 09:21:07;;;;;;;7.47;5.55;;;17.10;41.50;;;;;;4968597;28;20103;-56
2021/04/21 09:23:43;;;;;;;5.95;5.43;;;17.20;40.10;;;;;;5023544;28;20044;-58
2021/04/21 09:26:16;;;;;;;9.77;5.20;;;17.30;40.40;;;;;;5062307;28;20084;-56
2021/04/21 09:28:47;;;;;;;6.15;5.55;;;17.30;39.80;;;;;;5063011;28;20036;-55
2021/04/21 09:31:25;;;;;;;10.82;6.55;;;17.50;40.00;;;;;;5051900;28;20131;-58
2021/04/21 09:34:08;;;;;;;11.85;6.88;;;17.60;39.80;;;;;;5046092;28;20147;-58
2021/04/21 09:36:35;;;;;;;7.35;6.00;;;17.60;38.60;;;;;;5042334;28;20128;-58
2021/04/21 09:39:27;;;;;;;12.73;6.47;;;17.50;39.00;;;;;;5068865;28;20131;-59
2021/04/21 09:42:01;;;;;;;9.20;6.65;;;17.60;39.10;;;;;;5051775;28;20768;-56
2021/04/21 09:44:30;;;;;;;10.82;6.20;;;17.50;39.20;;;;;;5067787;28;20398;-59
2021/04/21 09:47:12;;;;;;;7.28;6.57;;;17.50;39.00;;;;;;5050174;28;20116;-59
2021/04/21 09:49:41;;;;;;;11.23;7.28;;;17.40;39.10;;;;;;5067899;28;20074;-57
2021/04/21 09:55:31;;;;;;;8.95;6.90;;;17.50;39.70;;;;;;4965387;28;20530;-57
2021/04/21 09:57:57;;;;;;;7.30;6.25;;;17.60;39.50;;;;;;5036819;28;20084;-58
2021/04/21 10:00:26;;;;;;;7.25;6.60;;;17.70;38.90;;;;;;5030437;28;20073;-56
2021/04/21 10:02:52;;;;;;;8.73;6.20;;;17.90;37.50;;;;;;5037686;28;20471;-59
2021/04/21 10:05:30;;;;;;;8.80;6.20;;;18.10;37.80;;;;;;5040338;28;20048;-60
2021/04/21 10:08:33;;;;;;;7.10;5.63;;;18.00;36.50;;;;;;5027133;28;20029;-58
2021/04/21 10:11:14;;;;;;;6.20;4.75;;;18.20;35.00;;;;;;4958790;28;20118;-59
2021/04/21 10:13:44;;;;;;;6.15;5.35;;;18.30;35.40;;;;;;5033012;28;20131;-58
2021/04/21 10:16:11;;;;;;;7.38;5.20;;;18.30;35.70;;;;;;5037561;28;20060;-57
2021/04/21 10:18:37;;;;;;;6.72;5.32;;;18.40;36.90;;;;;;5040641;28;20194;-58
2021/04/21 10:21:04;;;;;;;6.90;5.40;;;18.50;36.10;;;;;;5025336;28;20563;-58
2021/04/21 10:23:31;;;;;;;6.30;4.70;;;18.50;35.40;;;;;;5027901;28;20041;-57
2021/04/21 10:26:08;;;;;;;6.95;5.80;;;18.40;35.70;;;;;;5025888;28;20435;-59
2021/04/21 10:28:34;;;;;;;7.85;5.28;;;18.50;35.00;;;;;;5031858;28;20061;-59
2021/04/21 10:31:05;;;;;;;6.00;5.43;;;18.40;35.60;;;;;;5038627;28;20408;-59
2021/04/21 10:33:31;;;;;;;5.70;5.13;;;18.30;34.50;;;;;;5027991;28;20038;-59
2021/04/21 10:35:57;;;;;;;7.93;4.95;;;18.40;35.30;;;;;;5027617;28;20415;-58
2021/04/21 10:38:25;;;;;;;6.50;5.30;;;18.50;35.10;;;;;;5029214;28;20049;-56
2021/04/21 10:41:11;;;;;;;5.90;5.30;;;18.40;34.70;;;;;;5037736;28;20049;-57
2021/04/21 10:43:38;;;;;;;5.38;4.80;;;18.30;35.00;;;;;;5015599;28;20033;-58
2021/04/21 10:46:04;;;;;;;5.82;4.82;;;18.40;35.20;;;;;;5033607;28;20046;-58
2021/04/21 10:48:40;;;;;;;7.55;5.32;;;18.50;34.30;;;;;;5039341;28;20426;-56
2021/04/21 10:51:31;;;;;;;5.70;5.18;;;18.60;33.90;;;;;;5048023;28;20143;-58
2021/04/21 10:54:09;;;;;;;7.07;5.07;;;18.80;34.00;;;;;;5022290;28;20042;-57
2021/04/21 10:56:37;;;;;;;6.88;4.88;;;18.70;34.00;;;;;;5045523;28;20053;-57
2021/04/21 10:59:04;;;;;;;5.15;4.68;;;18.70;33.10;;;;;;5039971;28;20041;-58
2021/04/21 11:01:35;;;;;;;5.22;4.70;;;18.90;32.70;;;;;;5049267;28;20051;-59
2021/04/21 11:04:03;;;;;;;5.63;5.13;;;19.10;32.70;;;;;;5057768;28;20517;-58
2021/04/21 11:06:40;;;;;;;6.38;5.25;;;19.00;32.30;;;;;;5049802;28;20029;-58
2021/04/21 11:09:07;;;;;;;6.60;5.15;;;19.20;32.80;;;;;;5060288;28;20494;-59
2021/04/21 11:11:43;;;;;;;4.57;4.18;;;19.10;32.60;;;;;;5052643;28;20100;-57
2021/04/21 11:14:29;;;;;;;6.78;5.45;;;19.20;32.20;;;;;;5048366;28;20037;-56
2021/04/21 11:17:05;;;;;;;8.32;5.45;;;19.40;31.90;;;;;;5031449;28;20078;-58
2021/04/21 11:19:38;;;;;;;5.35;4.80;;;19.60;30.70;;;;;;5053156;28;20128;-59
2021/04/21 11:22:14;;;;;;;4.82;4.22;;;19.60;30.90;;;;;;5051622;28;20072;-58
2021/04/21 11:24:40;;;;;;;7.95;5.50;;;19.80;31.10;;;;;;5042159;28;20040;-58
2021/04/21 11:27:42;;;;;;;6.72;4.70;;;20.00;31.10;;;;;;5045765;28;20091;-57
2021/04/21 11:30:32;;;;;;;6.90;4.38;;;20.20;30.20;;;;;;5004142;28;20029;-58
2021/04/21 11:32:59;;;;;;;5.22;3.95;;;;;;;;;;5000539;28;20085;-57
2021/04/21 11:35:29;;;;;;;5.38;4.88;;;20.40;29.00;;;;;;5054005;28;20040;-56
2021/04/21 11:37:54;;;;;;;5.32;4.55;;;21.40;27.90;;;;;;5061059;28;20197;-58
2021/04/21 11:40:28;;;;;;;6.78;5.38;;;21.40;28.10;;;;;;5060551;28;20470;-58
2021/04/21 11:43:15;;;;;;;5.40;4.90;;;21.70;28.80;;;;;;5048395;28;20056;-57
2021/04/21 11:45:42;;;;;;;6.97;4.32;;;24.50;26.20;;;;;;5038833;28;20045;-58
2021/04/21 11:48:09;;;;;;;5.07;4.57;;;25.40;24.70;;;;;;5046350;28;20044;-59
2021/04/21 11:50:38;;;;;;;4.78;4.38;;;25.20;23.90;;;;;;5050855;28;20227;-58
2021/04/21 11:53:10;;;;;;;7.25;4.07;;;25.20;22.70;;;;;;5045969;28;20143;-59
2021/04/21 11:55:52;;;;;;;4.72;4.13;;;25.90;22.40;;;;;;5050722;28;20127;-59
2021/04/21 11:58:19;;;;;;;5.40;4.18;;;26.50;22.60;;;;;;5042171;28;20071;-59
2021/04/21 12:01:07;;;;;;;4.97;4.53;;;25.70;22.80;;;;;;5047837;28;20394;-59
2021/04/21 12:03:37;;;;;;;5.63;3.70;;;26.00;22.70;;;;;;5037755;28;20473;-59
2021/04/21 12:06:08;;;;;;;7.43;4.40;;;25.60;22.30;;;;;;5029936;28;20398;-59
2021/04/21 12:08:39;;;;;;;5.65;4.18;;;26.10;22.70;;;;;;5051955;28;20037;-58
2021/04/21 12:11:06;;;;;;;4.80;4.10;;;27.00;21.80;;;;;;5050777;28;20105;-58
2021/04/21 12:13:46;;;;;;;6.90;4.28;;;26.80;21.80;;;;;;5045177;28;20033;-59
2021/04/21 12:16:15;;;;;;;4.18;3.60;;;27.10;22.00;;;;;;5043701;28;20079;-59
2021/04/21 12:18:49;;;;;;;4.43;4.03;;;26.00;21.90;;;;;;5053725;28;20455;-58
2021/04/21 12:21:17;;;;;;;4.65;4.28;;;26.20;22.00;;;;;;5052677;28;20535;-58
2021/04/21 12:23:56;;;;;;;4.20;3.90;;;26.20;22.30;;;;;;5065318;28;20043;-59
2021/04/21 12:26:28;;;;;;;4.30;3.97;;;25.00;22.10;;;;;;5054067;28;20063;-58
2021/04/21 12:29:11;;;;;;;4.25;3.78;;;24.50;23.10;;;;;;5065573;28;20043;-58
2021/04/21 12:31:38;;;;;;;4.57;4.03;;;24.10;22.80;;;;;;5066036;28;20043;-59
2021/04/21 12:34:16;;;;;;;4.30;3.90;;;24.80;23.40;;;;;;5071009;28;20033;-58
2021/04/21 12:36:42;;;;;;;4.47;4.15;;;24.30;23.50;;;;;;5065466;28;20107;-59
2021/04/21 12:39:09;;;;;;;6.25;4.47;;;23.80;24.10;;;;;;5064819;28;20172;-59
2021/04/21 12:41:37;;;;;;;6.45;4.60;;;23.60;24.40;;;;;;5058188;28;20379;-57
2021/04/21 12:44:16;;;;;;;5.75;4.72;;;23.10;24.60;;;;;;5069567;28;20127;-58
2021/04/21 12:46:43;;;;;;;5.15;4.68;;;23.10;24.40;;;;;;5056480;28;20029;-58
2021/04/21 12:49:09;;;;;;;4.57;4.18;;;23.30;24.90;;;;;;5053751;28;20090;-57
2021/04/21 12:51:35;;;;;;;5.32;4.93;;;23.00;24.80;;;;;;5058141;28;20045;-57
2021/04/21 12:54:03;;;;;;;4.85;4.35;;;23.20;24.80;;;;;;5036311;28;20449;-58
2021/04/21 12:56:37;;;;;;;5.18;4.78;;;23.20;25.00;;;;;;5056232;28;20057;-58
2021/04/21 12:59:17;;;;;;;5.03;4.63;;;23.00;24.80;;;;;;5044519;28;20150;-57
2021/04/21 13:01:43;;;;;;;5.28;4.78;;;23.40;24.40;;;;;;5048841;28;20033;-59
2021/04/21 13:04:11;;;;;;;5.00;4.57;;;23.90;24.60;;;;;;5051315;28;20033;-57
2021/04/21 13:06:38;;;;;;;5.53;4.80;;;24.30;24.10;;;;;;5059670;28;20505;-59
2021/04/21 13:09:10;;;;;;;5.82;4.50;;;24.50;23.70;;;;;;5053481;28;20132;-58
2021/04/21 13:11:38;;;;;;;7.40;5.53;;;24.40;24.30;;;;;;5066610;28;20124;-59
2021/04/21 13:14:05;;;;;;;5.03;4.50;;;24.70;23.70;;;;;;5065946;28;20070;-59
2021/04/21 13:16:38;;;;;;;5.70;5.00;;;25.00;23.90;;;;;;5055202;28;20048;-59
2021/04/21 13:19:27;;;;;;;5.28;4.60;;;25.50;23.40;;;;;;5041909;28;20048;-59
2021/04/21 13:22:10;;;;;;;5.15;4.75;;;25.50;23.00;;;;;;5063095;28;20451;-59
2021/04/21 13:24:50;;;;;;;5.82;5.32;;;26.10;22.70;;;;;;5020176;28;20398;-58
2021/04/21 13:27:27;;;;;;;6.38;4.82;;;26.40;22.40;;;;;;5053039;28;20036;-58
2021/04/21 13:30:08;;;;;;;5.60;4.47;;;26.90;21.90;;;;;;5045556;28;20068;-58
2021/04/21 13:32:35;;;;;;;5.00;4.50;;;27.90;24.30;;;;;;5024864;28;20049;-58
2021/04/21 13:35:01;;;;;;;5.25;4.75;;;27.90;47.70;;;;;;5052180;28;20041;-56
2021/04/21 13:37:27;;;;;;;5.10;4.72;;;28.10;21.00;;;;;;5048100;28;20044;-58
2021/04/21 13:40:09;;;;;;;8.02;4.88;;;28.30;20.80;;;;;;5056850;28;20439;-58
2021/04/21 13:42:43;;;;;;;8.68;4.80;;;28.10;27.20;;;;;;5008849;28;20045;-61
2021/04/21 13:45:13;;;;;;;4.65;4.25;;;27.80;25.00;;;;;;5037598;28;20451;-60
2021/04/21 13:47:43;;;;;;;5.82;5.32;;;27.10;25.30;;;;;;5052057;28;20037;-60
2021/04/21 13:50:09;;;;;;;6.53;5.70;;;26.00;23.90;;;;;;5057522;28;20029;-61
2021/04/21 13:52:35;;;;;;;5.28;4.78;;;25.80;26.50;;;;;;5049024;28;20105;-59
2021/04/21 13:55:01;;;;;;;5.40;4.88;;;25.90;28.40;;;;;;5044269;28;20057;-60
2021/04/21 13:57:27;;;;;;;6.05;5.45;;;25.90;23.00;;;;;;5048895;28;20049;-61
2021/04/21 13:59:53;;;;;;;7.60;6.22;;;25.80;22.80;;;;;;5037938;28;20034;-58
2021/04/21 14:02:19;;;;;;;6.35;5.72;;;25.20;22.50;;;;;;5057126;28;20036;-55
2021/04/21 14:04:47;;;;;;;7.18;6.57;;;25.30;23.20;;;;;;5048534;28;20553;-56
2021/04/21 14:07:12;;;;;;;6.65;6.05;;;26.10;22.60;;;;;;5068517;28;20174;-56
2021/04/21 14:09:40;;;;;;;7.05;6.35;;;26.60;22.90;;;;;;5060122;28;20119;-55
2021/04/21 14:12:06;;;;;;;6.63;6.13;;;27.70;21.20;;;;;;5063074;28;20041;-53
2021/04/21 14:14:33;;;;;;;7.53;6.32;;;27.80;21.10;;;;;;5063076;28;20044;-51
2021/04/21 14:16:59;;;;;;;8.77;7.88;;;27.30;21.30;;;;;;5028681;28;20608;-59
2021/04/21 14:19:24;;;;;;;8.80;8.00;;;26.60;21.90;;;;;;5033856;28;20140;-55
2021/04/21 14:21:50;;;;;;;7.18;6.53;;;26.00;22.20;;;;;;5051910;28;20041;-59
2021/04/21 14:24:16;;;;;;;8.55;7.78;;;26.50;22.30;;;;;;5052070;28;20040;-61
2021/04/21 14:26:43;;;;;;;7.75;7.13;;;26.20;22.20;;;;;;5062970;28;20045;-48
2021/04/21 14:29:09;;;;;;;10.00;7.88;;;26.60;21.70;;;;;;5052132;28;20037;-53
2021/04/21 14:31:38;;;;;;;8.18;7.43;;;26.40;21.80;;;;;;5049226;28;20079;-58
2021/04/21 14:34:05;;;;;;;8.32;7.57;;;26.70;21.70;;;;;;5049555;28;20041;-56
2021/04/21 14:36:32;;;;;;;7.55;6.95;;;25.60;22.30;;;;;;5062152;28;20035;-53
2021/04/21 14:38:58;;;;;;;8.02;7.22;;;26.00;22.60;;;;;;5051813;28;20091;-57
2021/04/21 14:41:26;;;;;;;8.68;7.88;;;25.70;22.70;;;;;;5047318;28;20036;-51
2021/04/21 14:43:52;;;;;;;10.52;9.20;;;24.70;23.50;;;;;;5048826;28;20124;-50
2021/04/21 14:46:17;;;;;;;9.73;8.93;;;24.10;24.20;;;;;;5055437;28;20124;-55
2021/04/21 14:48:43;;;;;;;10.63;8.55;;;23.90;24.50;;;;;;5051820;28;21416;-53
2021/04/21 14:51:09;;;;;;;7.82;7.13;;;23.50;25.10;;;;;;5055393;28;20041;-53
2021/04/21 14:53:34;;;;;;;8.48;7.78;;;23.20;25.40;;;;;;5042171;28;20037;-52
2021/04/21 14:56:00;;;;;;;9.88;9.07;;;24.40;25.20;;;;;;5047180;28;20460;-56
2021/04/21 14:58:26;;;;;;;9.25;8.45;;;24.90;24.20;;;;;;5049037;28;20498;-56
2021/04/21 15:00:51;;;;;;;10.82;8.75;;;25.30;23.90;;;;;;5048183;28;20072;-54
2021/04/21 15:03:17;;;;;;;9.32;8.63;;;25.50;29.70;;;;;;5048264;28;20063;-55
2021/04/21 15:05:42;;;;;;;8.48;7.88;;;24.70;24.00;;;;;;5028913;28;20028;-55
2021/04/21 15:08:09;;;;;;;9.02;8.32;;;23.90;24.70;;;;;;5049619;28;20029;-54
2021/04/21 15:10:34;;;;;;;9.55;8.75;;;23.70;24.70;;;;;;5061619;28;20464;-53
2021/04/21 15:13:02;;;;;;;8.43;7.72;;;23.50;25.10;;;;;;5062218;28;20036;-52
2021/04/21 15:15:28;;;;;;;8.15;6.95;;;23.00;25.50;;;;;;5065715;28;20032;-51
2021/04/21 15:17:55;;;;;;;7.50;6.85;;;22.70;25.80;;;;;;5058376;28;20055;-55
2021/04/21 15:20:22;;;;;;;7.55;6.85;;;22.50;26.10;;;;;;5040805;28;20470;-52
2021/04/21 15:22:51;;;;;;;7.55;6.60;;;22.20;26.40;;;;;;5051674;28;20041;-53
2021/04/21 15:25:19;;;;;;;6.75;6.15;;;22.10;26.60;;;;;;5058446;28;20766;-52
2021/04/21 15:27:47;;;;;;;5.78;5.28;;;21.80;26.90;;;;;;5049287;28;20045;-51
2021/04/21 15:30:14;;;;;;;10.10;6.22;;;21.70;27.10;;;;;;5064110;28;20036;-53
2021/04/21 15:32:40;;;;;;;6.45;5.90;;;21.80;27.30;;;;;;5060661;28;20138;-56
2021/04/21 15:35:08;;;;;;;7.38;5.18;;;21.70;27.40;;;;;;5062779;28;20508;-53
2021/04/21 15:37:35;;;;;;;7.38;4.93;;;21.20;27.60;;;;;;5064648;28;20117;-52
2021/04/21 15:40:06;;;;;;;5.55;5.05;;;21.30;28.00;;;;;;5063442;28;20045;-50
2021/04/21 15:42:33;;;;;;;7.43;5.82;;;21.40;28.10;;;;;;5059593;28;20120;-51
2021/04/21 15:44:59;;;;;;;6.97;5.75;;;21.20;27.90;;;;;;5051803;28;20390;-56
2021/04/21 15:47:25;;;;;;;8.38;5.47;;;21.30;28.00;;;;;;5053477;28;20147;-58
2021/04/21 15:49:50;;;;;;;10.77;5.32;;;21.20;28.00;;;;;;5048777;28;20044;-55
2021/04/21 15:52:16;;;;;;;5.63;4.78;;;20.90;28.50;;;;;;5043717;28;20115;-54
2021/04/21 15:54:43;;;;;;;5.10;4.63;;;21.00;36.20;;;;;;4993226;28;1315569;-53
2021/04/21 15:57:10;;;;;;;5.18;4.68;;;20.90;28.60;;;;;;5038324;28;20617;-51
2021/04/21 15:59:37;;;;;;;5.85;4.47;;;20.80;28.80;;;;;;5044917;28;20512;-54
2021/04/21 16:02:04;;;;;;;7.80;5.00;;;20.80;29.00;;;;;;5037477;28;20056;-54
2021/04/21 16:04:29;;;;;;;5.40;4.50;;;20.90;29.20;;;;;;5035041;28;20045;-54
2021/04/21 16:06:57;;;;;;;6.63;5.45;;;20.70;32.50;;;;;;5047494;28;20331;-55
2021/04/21 16:09:24;;;;;;;5.75;5.03;;;20.40;30.00;;;;;;5042552;28;20045;-55
2021/04/21 16:11:50;;;;;;;5.20;4.80;;;20.20;30.70;;;;;;5046203;28;20044;-50
2021/04/21 16:14:17;;;;;;;6.07;5.55;;;20.30;30.70;;;;;;5055708;28;20040;-54
2021/04/21 16:16:43;;;;;;;8.75;6.60;;;20.20;32.60;;;;;;5039823;28;20052;-52
2021/04/21 16:19:09;;;;;;;6.38;5.28;;;20.00;33.10;;;;;;5044351;28;20056;-53
2021/04/21 16:21:35;;;;;;;6.30;5.80;;;20.00;32.90;;;;;;5021878;28;20054;-51
2021/04/21 16:24:01;;;;;;;6.60;5.30;;;20.00;32.30;;;;;;5053658;28;20669;-51
2021/04/21 16:26:27;;;;;;;5.63;5.07;;;19.80;31.50;;;;;;5054599;28;20548;-52
2021/04/21 16:28:52;;;;;;;5.50;4.97;;;19.70;33.60;;;;;;5035106;28;20052;-53
2021/04/21 16:31:19;;;;;;;5.22;4.75;;;19.80;33.90;;;;;;5044366;28;20037;-56
2021/04/21 16:33:45;;;;;;;4.25;3.85;;;19.70;34.70;;;;;;5058151;28;20141;-54
2021/04/21 16:36:11;;;;;;;4.32;3.70;;;19.50;32.90;;;;;;5050956;28;20131;-54
2021/04/21 16:38:37;;;;;;;5.30;4.90;;;19.40;45.10;;;;;;5056714;28;20044;-55
2021/04/21 16:41:04;;;;;;;5.30;4.80;;;19.20;45.20;;;;;;5034761;28;20052;-54
2021/04/21 16:43:30;;;;;;;4.85;4.32;;;19.30;33.20;;;;;;5041841;28;20399;-54
2021/04/21 16:45:56;;;;;;;4.93;4.53;;;18.80;32.40;;;;;;5041771;28;20057;-56
2021/04/21 16:48:22;;;;;;;6.57;4.82;;;;;;;;;;5058273;28;20103;-53
2021/04/21 16:50:48;;;;;;;6.05;5.18;;;19.10;45.20;;;;;;5052453;28;20446;-53
2021/04/21 16:53:15;;;;;;;11.02;6.35;;;19.30;46.70;;;;;;5044439;28;20128;-56
2021/04/21 16:55:43;;;;;;;12.07;6.93;;;19.00;48.00;;;;;;5064690;28;20437;-57
2021/04/21 16:58:16;;;;;;;23.02;9.77;;;18.90;50.70;;;;;;5060646;28;20395;-52
2021/04/21 17:00:43;;;;;;;8.90;7.18;;;18.60;49.50;;;;;;5057143;28;20063;-56
2021/04/21 17:03:11;;;;;;;13.32;9.23;;;18.20;51.40;;;;;;5036023;28;20043;-57
2021/04/21 17:05:38;;;;;;;13.77;8.85;;;18.00;53.30;;;;;;5043300;28;20032;-53
2021/04/21 17:08:04;;;;;;;12.90;8.77;;;17.70;54.10;;;;;;5045984;28;20124;-55
2021/04/21 17:10:33;;;;;;;7.32;6.28;;;17.30;59.40;;;;;;5051832;28;20032;-56
2021/04/21 17:12:59;;;;;;;8.23;7.13;;;17.20;57.10;;;;;;5050947;28;20091;-56
2021/04/21 17:15:25;;;;;;;8.50;7.78;;;17.00;58.10;;;;;;5055627;28;20515;-53
2021/04/21 17:17:52;;;;;;;5.88;5.15;;;17.20;58.30;;;;;;5048001;28;20037;-54
2021/04/21 17:20:20;;;;;;;4.63;3.70;;;16.90;53.20;;;;;;5054788;28;20029;-54
2021/04/21 17:22:46;;;;;;;6.47;3.92;;;16.80;53.60;;;;;;5044785;28;20068;-53
2021/04/21 17:25:25;;;;;;;3.55;3.20;;;16.80;58.10;;;;;;5067263;28;20075;-53
2021/04/21 17:27:57;;;;;;;5.22;3.05;;;16.50;61.80;;;;;;5047848;28;20482;-52
2021/04/21 17:30:31;;;;;;;3.42;3.13;;;16.60;58.30;;;;;;5054440;28;20053;-53
2021/04/21 17:32:57;;;;;;;4.35;3.83;;;16.80;60.20;;;;;;5047768;28;20529;-54
2021/04/21 17:35:23;;;;;;;7.18;5.60;;;16.80;59.00;;;;;;5030718;28;20029;-51
2021/04/21 17:37:49;;;;;;;7.47;6.78;;;16.80;59.10;;;;;;5048256;28;20453;-55
2021/04/21 17:40:17;;;;;;;7.22;6.53;;;16.90;58.80;;;;;;5056982;28;20051;-51
2021/04/21 17:42:55;;;;;;;7.78;6.05;;;16.70;56.80;;;;;;5050749;28;20124;-53
2021/04/21 17:45:21;;;;;;;7.78;6.43;;;16.50;56.40;;;;;;5050634;28;20032;-51
2021/04/21 17:47:47;;;;;;;10.68;6.30;;;16.20;59.10;;;;;;5069524;28;20041;-52
2021/04/21 17:50:13;;;;;;;6.70;5.63;;;16.00;60.70;;;;;;5060443;28;20091;-50
2021/04/21 17:52:39;;;;;;;7.03;6.32;;;16.10;63.80;;;;;;5068581;28;20405;-51
2021/04/21 17:55:05;;;;;;;7.05;5.95;;;16.00;63.50;;;;;;5048183;28;20058;-53
2021/04/21 17:57:31;;;;;;;6.43;5.53;;;15.90;62.20;;;;;;5051445;28;20048;-53
2021/04/21 17:59:56;;;;;;;6.72;6.13;;;15.80;60.40;;;;;;5042558;28;20049;-52
2021/04/21 18:02:22;;;;;;;8.48;5.90;;;15.70;60.50;;;;;;5046654;28;20052;-53
2021/04/21 18:04:47;;;;;;;6.68;6.13;;;15.70;61.20;;;;;;5050388;28;20045;-53
2021/04/21 18:07:13;;;;;;;8.95;6.25;;;15.80;63.10;;;;;;5054889;28;20036;-51
2021/04/21 18:09:39;;;;;;;7.15;5.85;;;15.60;65.70;;;;;;5060178;28;20033;-52
2021/04/21 18:12:06;;;;;;;6.82;6.30;;;15.40;71.60;;;;;;5051847;28;20129;-55
2021/04/21 18:14:31;;;;;;;9.30;7.25;;;15.40;70.20;;;;;;5033016;28;20986;-52
2021/04/21 18:16:57;;;;;;;8.55;7.68;;;15.20;71.90;;;;;;5051366;28;20033;-52
2021/04/21 18:19:23;;;;;;;12.27;8.15;;;15.10;74.90;;;;;;5049955;28;20099;-53
2021/04/21 18:21:49;;;;;;;10.98;8.27;;;14.90;75.00;;;;;;5045357;28;20091;-56
2021/04/21 18:24:16;;;;;;;9.73;8.15;;;14.80;81.20;;;;;;5054383;28;20059;-53
2021/04/21 18:26:42;;;;;;;7.00;6.40;;;14.70;81.00;;;;;;5052898;28;20124;-55
2021/04/21 18:29:08;;;;;;;6.93;6.22;;;14.70;80.10;;;;;;5062937;28;20040;-55
2021/04/21 18:31:34;;;;;;;7.03;5.78;;;14.70;77.20;;;;;;5046208;28;20071;-55
2021/04/21 18:34:00;;;;;;;6.65;5.95;;;14.80;74.80;;;;;;5036478;28;20091;-54
2021/04/21 18:36:25;;;;;;;7.40;6.32;;;14.90;72.50;;;;;;5045691;28;20329;-58
2021/04/21 18:38:51;;;;;;;7.07;5.95;;;15.00;71.30;;;;;;5065528;28;20522;-55
2021/04/21 18:41:17;;;;;;;6.93;6.28;;;15.10;70.10;;;;;;5052509;28;20501;-54
2021/04/21 18:43:42;;;;;;;8.85;5.45;;;15.10;69.40;;;;;;5049990;28;20097;-54
2021/04/21 18:46:08;;;;;;;6.30;5.70;;;15.20;68.90;;;;;;5054361;28;20465;-53
2021/04/21 18:48:34;;;;;;;6.75;6.15;;;15.20;69.30;;;;;;5047931;28;20041;-55
2021/04/21 18:51:00;;;;;;;6.00;5.30;;;15.10;68.20;;;;;;5057081;28;20032;-54
2021/04/21 18:53:26;;;;;;;5.93;5.43;;;15.20;67.30;;;;;;5026658;28;20127;-57
2021/04/21 18:55:54;;;;;;;5.97;5.45;;;15.30;67.20;;;;;;5043845;28;20094;-54
2021/04/21 18:58:19;;;;;;;6.18;5.65;;;15.30;66.20;;;;;;5049442;28;20057;-55
2021/04/21 19:00:47;;;;;;;5.93;5.43;;;15.30;66.50;;;;;;5046446;28;20988;-53
2021/04/21 19:03:13;;;;;;;5.63;5.13;;;15.40;65.80;;;;;;5050196;28;20029;-54
2021/04/21 19:05:38;;;;;;;5.93;5.32;;;15.30;66.30;;;;;;5047258;28;20048;-55
2021/04/21 19:08:05;;;;;;;5.63;5.10;;;15.20;64.80;;;;;;5046835;28;20037;-56
2021/04/21 19:17:14;;;;;;;6.10;5.47;;;15.30;65.50;;;;;;4993549;28;20398;-64
2021/04/21 19:19:44;;;;;;;5.47;4.90;;;15.30;65.60;;;;;;5049824;28;20045;-64
2021/04/21 19:22:10;;;;;;;6.88;5.85;;;15.30;65.60;;;;;;5055198;28;20569;-64
2021/04/21 19:24:37;;;;;;;6.15;5.55;;;15.30;66.00;;;;;;5051811;28;20033;-64
2021/04/21 19:27:05;;;;;;;6.13;5.45;;;15.40;65.40;;;;;;5054387;28;20120;-62
2021/04/21 19:29:31;;;;;;;8.10;5.30;;;15.30;64.60;;;;;;5041808;28;20115;-55
2021/04/21 19:32:02;;;;;;;6.20;5.53;;;15.30;67.30;;;;;;5055186;28;20040;-60
2021/04/21 19:34:27;;;;;;;5.53;5.03;;;15.20;65.70;;;;;;5054270;28;20611;-60
2021/04/21 19:36:54;;;;;;;5.10;4.60;;;15.20;67.30;;;;;;5061729;28;20036;-60
2021/04/21 19:39:23;;;;;;;4.50;4.03;;;15.20;64.80;;;;;;5024226;28;20473;-59
2021/04/21 19:41:51;;;;;;;4.75;4.35;;;15.20;64.60;;;;;;5038285;28;20482;-60
2021/04/21 19:44:20;;;;;;;5.57;4.10;;;15.30;64.90;;;;;;5059426;28;20141;-60
2021/04/21 19:46:46;;;;;;;5.15;4.65;;;15.20;64.20;;;;;;5060569;28;20052;-60
2021/04/21 19:49:14;;;;;;;4.68;4.25;;;15.20;64.80;;;;;;5061341;28;20048;-59
2021/04/21 19:51:40;;;;;;;5.68;5.18;;;15.20;65.50;;;;;;5065328;28;20072;-59
2021/04/21 19:54:13;;;;;;;6.00;5.40;;;15.30;66.50;;;;;;5050644;28;20427;-59
2021/04/21 19:56:45;;;;;;;5.95;5.38;;;15.30;66.40;;;;;;5065905;28;20052;-59
2021/04/21 19:59:12;;;;;;;5.40;4.88;;;15.40;66.00;;;;;;5058420;28;20131;-59
2021/04/21 20:01:38;;;;;;;4.93;4.53;;;15.30;65.30;;;;;;5066387;28;20110;-59
2021/04/21 20:04:08;;;;;;;5.15;4.75;;;15.30;63.50;;;;;;5059166;28;20044;-59